Time;durP1;ratioP1;P1;durP2;ratioP2;P2;SDS_P1;SDS_P2;PMS_P1;PMS_P2;Temp;Humidity;BMP_temperature;BMP_pressure;BME280_temperature;BME280_humidity;BME280_pressure;Samples;Min_cycle;Max_cycle;Signal;HPM_P1;HPM_P2
2022/04/29 00:01:26;;;;;;;8.32;5.80;;;;;;;;;;5020131;28;20026;-82
2022/04/29 00:03:53;;;;;;;7.03;5.15;;;;;;;;;;5000526;28;20215;-83
2022/04/29 00:06:19;;;;;;;7.93;5.45;;;;;;;;;;5000783;28;20104;-83
2022/04/29 00:08:45;;;;;;;7.60;5.68;;;;;;;;;;5007732;28;20022;-82
2022/04/29 00:11:11;;;;;;;9.07;5.80;;;;;;;;;;5012794;28;20591;-83
2022/04/29 00:13:37;;;;;;;8.57;5.85;;;;;;;;;;4999690;28;20495;-83
2022/04/29 00:16:05;;;;;;;7.45;5.50;;;;;;;;;;5012675;28;20042;-83
2022/04/29 00:18:31;;;;;;;8.88;6.07;;;;;;;;;;5029198;28;20022;-83
2022/04/29 00:20:57;;;;;;;8.43;5.53;;;;;;;;;;5016638;28;20082;-82
2022/04/29 00:23:23;;;;;;;7.15;5.45;;;;;;;;;;5000244;28;20560;-83
2022/04/29 00:25:49;;;;;;;6.90;5.50;;;;;;;;;;4999454;28;20038;-83
2022/04/29 00:28:15;;;;;;;7.72;6.05;;;;;;;;;;5018332;28;20025;-82
2022/04/29 00:30:41;;;;;;;7.95;5.90;;;;;;;;;;5008848;28;20123;-83
2022/04/29 00:33:07;;;;;;;7.90;5.85;;;;;;;;;;5024612;28;20132;-83
2022/04/29 00:35:33;;;;;;;8.88;6.70;;;;;;;;;;5031611;28;20026;-83
2022/04/29 00:37:59;;;;;;;8.77;6.55;;;;;;;;;;4999498;28;20026;-83
2022/04/29 00:40:26;;;;;;;9.57;6.15;;;;;;;;;;5017785;28;20034;-83
2022/04/29 00:42:52;;;;;;;9.63;6.20;;;;;;;;;;5002598;28;20018;-83
2022/04/29 00:45:19;;;;;;;9.02;5.95;;;;;;;;;;4999784;28;20118;-82
2022/04/29 00:47:46;;;;;;;9.02;6.68;;;;;;;;;;4999091;28;20026;-83
2022/04/29 00:50:13;;;;;;;8.95;6.53;;;;;;;;;;5000572;28;20061;-83
2022/04/29 00:52:41;;;;;;;7.50;5.95;;;;;;;;;;5020278;28;20405;-83
2022/04/29 00:55:08;;;;;;;9.63;6.40;;;;;;;;;;5018544;28;20026;-83
2022/04/29 00:57:54;;;;;;;7.57;5.70;;;;;;;;;;5019415;28;20471;-83
2022/04/29 01:00:22;;;;;;;9.80;5.88;;;;;;;;;;4969183;28;20050;-83
2022/04/29 01:02:50;;;;;;;8.70;6.50;;;;;;;;;;5016510;28;20030;-83
2022/04/29 01:05:18;;;;;;;8.68;6.22;;;;;;;;;;5019439;28;20097;-82
2022/04/29 01:07:45;;;;;;;9.93;6.50;;;;;;;;;;5014580;28;20031;-83
2022/04/29 01:10:12;;;;;;;9.07;6.38;;;;;;;;;;5000322;28;20464;-83
2022/04/29 01:12:39;;;;;;;9.38;6.13;;;;;;;;;;5013958;28;20080;-82
2022/04/29 01:15:07;;;;;;;9.80;6.53;;;;;;;;;;5017852;28;20488;-83
2022/04/29 01:17:37;;;;;;;8.07;6.13;;;;;;;;;;5018406;28;20069;-82
2022/04/29 01:20:08;;;;;;;8.13;6.25;;;;;;;;;;5017793;28;20033;-82
2022/04/29 01:22:34;;;;;;;9.23;6.47;;;;;;;;;;5003889;28;20023;-83
2022/04/29 01:25:00;;;;;;;8.18;6.18;;;;;;;;;;5017195;28;20033;-83
2022/04/29 01:27:26;;;;;;;8.80;6.07;;;;;;;;;;5016441;28;20033;-83
2022/04/29 01:30:01;;;;;;;9.13;7.00;;;;;;;;;;5016778;28;20388;-83
2022/04/29 01:32:27;;;;;;;9.80;6.28;;;;;;;;;;5009181;28;20042;-83
2022/04/29 01:34:53;;;;;;;9.80;6.38;;;;;;;;;;4998624;28;20030;-82
2022/04/29 01:37:19;;;;;;;9.88;6.47;;;;;;;;;;4999541;28;20399;-83
2022/04/29 01:39:45;;;;;;;8.50;5.82;;;;;;;;;;5008070;28;20033;-83
2022/04/29 01:42:11;;;;;;;9.55;6.20;;;;;;;;;;5012265;28;20025;-83
2022/04/29 01:44:37;;;;;;;10.20;6.95;;;;;;;;;;5017491;28;20087;-83
2022/04/29 01:47:03;;;;;;;9.32;6.55;;;;;;;;;;5017417;28;20022;-83
2022/04/29 01:49:29;;;;;;;9.90;6.47;;;;;;;;;;5018263;28;20037;-83
2022/04/29 01:51:56;;;;;;;8.75;6.50;;;;;;;;;;5018325;28;20033;-82
2022/04/29 01:54:22;;;;;;;10.82;6.63;;;;;;;;;;5017184;28;20071;-82
2022/04/29 01:56:52;;;;;;;9.40;7.15;;;;;;;;;;5018240;28;20026;-82
2022/04/29 01:59:18;;;;;;;10.93;7.35;;;;;;;;;;5018974;28;20017;-82
2022/04/29 02:01:44;;;;;;;10.15;7.00;;;;;;;;;;5010111;28;20018;-83
2022/04/29 02:04:10;;;;;;;9.38;6.82;;;;;;;;;;4998297;28;20477;-83
2022/04/29 02:06:38;;;;;;;10.45;6.78;;;;;;;;;;5009840;28;20053;-82
2022/04/29 02:09:04;;;;;;;9.93;7.05;;;;;;;;;;5016157;28;20080;-82
2022/04/29 02:11:30;;;;;;;11.15;7.45;;;;;;;;;;5014253;28;20480;-82
2022/04/29 02:13:56;;;;;;;10.13;7.65;;;;;;;;;;4998689;28;20133;-82
2022/04/29 02:16:22;;;;;;;9.90;6.97;;;;;;;;;;4998544;28;20026;-82
2022/04/29 02:18:48;;;;;;;9.15;6.90;;;;;;;;;;4998725;28;20487;-82
2022/04/29 02:21:15;;;;;;;9.63;6.93;;;;;;;;;;4999341;28;20022;-82
2022/04/29 02:23:41;;;;;;;9.45;7.05;;;;;;;;;;5017840;28;20045;-82
2022/04/29 02:26:07;;;;;;;9.07;7.07;;;;;;;;;;5018667;28;20444;-82
2022/04/29 02:28:35;;;;;;;9.38;6.65;;;;;;;;;;5017930;28;20483;-82
2022/04/29 02:31:01;;;;;;;9.38;7.10;;;;;;;;;;5016469;28;20448;-82
2022/04/29 02:33:30;;;;;;;10.65;7.35;;;;;;;;;;5008719;28;20038;-82
2022/04/29 02:35:56;;;;;;;9.57;7.10;;;;;;;;;;4997511;28;20026;-82
2022/04/29 02:38:23;;;;;;;10.77;7.53;;;;;;;;;;4999289;28;20090;-82
2022/04/29 02:40:54;;;;;;;10.68;7.80;;;;;;;;;;4997624;28;20019;-82
2022/04/29 02:43:20;;;;;;;11.85;7.38;;;;;;;;;;4998203;28;20046;-82
2022/04/29 02:45:47;;;;;;;9.73;7.40;;;;;;;;;;5007772;28;20173;-82
2022/04/29 02:48:13;;;;;;;10.68;7.32;;;;;;;;;;4998309;28;20027;-82
2022/04/29 02:50:40;;;;;;;10.50;7.60;;;;;;;;;;4999049;28;20030;-82
2022/04/29 02:53:06;;;;;;;10.80;7.45;;;;;;;;;;5033007;28;20581;-82
2022/04/29 02:55:32;;;;;;;11.18;8.00;;;;;;;;;;5012111;28;20034;-82
2022/04/29 02:57:58;;;;;;;10.25;7.88;;;;;;;;;;5006598;28;20029;-83
2022/04/29 03:00:24;;;;;;;11.45;8.55;;;;;;;;;;5020648;28;20406;-82
2022/04/29 03:02:50;;;;;;;11.32;8.75;;;;;;;;;;5016001;28;20034;-82
2022/04/29 03:05:16;;;;;;;13.77;8.48;;;;;;;;;;5008090;28;20201;-82
2022/04/29 03:07:42;;;;;;;11.98;8.88;;;;;;;;;;5022635;28;20459;-82
2022/04/29 03:10:08;;;;;;;11.05;8.85;;;;;;;;;;5020553;28;20026;-82
2022/04/29 03:12:34;;;;;;;10.68;8.25;;;;;;;;;;5008624;28;20060;-82
2022/04/29 03:15:16;;;;;;;11.60;8.35;;;;;;;;;;5016479;28;20045;-82
2022/04/29 03:20:27;;;;;;;10.85;8.77;;;;;;;;;;5011083;28;20037;-82
2022/04/29 03:22:53;;;;;;;10.95;8.52;;;;;;;;;;5011827;28;20373;-82
2022/04/29 03:25:19;;;;;;;12.75;9.25;;;;;;;;;;5011823;28;20042;-82
2022/04/29 03:27:45;;;;;;;11.43;9.35;;;;;;;;;;5007754;28;20034;-83
2022/04/29 03:30:11;;;;;;;12.13;8.88;;;;;;;;;;5014909;28;20026;-82
2022/04/29 03:32:37;;;;;;;10.45;8.52;;;;;;;;;;5017096;28;20125;-82
2022/04/29 03:35:04;;;;;;;11.05;8.65;;;;;;;;;;5003985;28;20085;-82
2022/04/29 03:37:31;;;;;;;11.50;8.57;;;;;;;;;;5002023;28;20109;-83
2022/04/29 03:39:57;;;;;;;10.68;7.95;;;;;;;;;;5004751;28;20032;-82
2022/04/29 03:42:23;;;;;;;12.02;8.70;;;;;;;;;;5017925;28;20046;-82
2022/04/29 03:44:52;;;;;;;12.27;9.07;;;;;;;;;;5010468;28;20054;-82
2022/04/29 03:47:18;;;;;;;12.23;9.20;;;;;;;;;;4997948;28;20030;-82
2022/04/29 03:49:43;;;;;;;11.23;8.73;;;;;;;;;;5001706;28;20033;-82
2022/04/29 03:52:09;;;;;;;10.60;8.25;;;;;;;;;;4999106;28;20065;-83
2022/04/29 03:54:35;;;;;;;13.15;9.40;;;;;;;;;;5005090;28;20109;-82
2022/04/29 03:57:05;;;;;;;12.82;8.98;;;;;;;;;;5017041;28;20029;-82
2022/04/29 03:59:32;;;;;;;10.73;9.35;;;;;;;;;;5024897;28;20032;-83
2022/04/29 04:01:58;;;;;;;11.05;8.13;;;;;;;;;;5030155;28;20083;-82
2022/04/29 04:04:24;;;;;;;12.40;9.20;;;;;;;;;;5018228;28;20030;-83
2022/04/29 04:06:50;;;;;;;13.68;9.43;;;;;;;;;;5022270;28;20022;-82
2022/04/29 04:09:21;;;;;;;11.38;9.15;;;;;;;;;;5022875;28;20044;-83
2022/04/29 04:11:48;;;;;;;11.88;9.73;;;;;;;;;;5013830;28;20113;-83
2022/04/29 04:14:14;;;;;;;11.02;8.73;;;;;;;;;;4999820;28;20045;-82
2022/04/29 04:16:41;;;;;;;12.68;9.38;;;;;;;;;;4998114;28;20034;-83
2022/04/29 04:19:07;;;;;;;11.18;8.82;;;;;;;;;;5001910;28;20100;-83
2022/04/29 04:21:33;;;;;;;12.43;9.20;;;;;;;;;;5005044;28;20033;-83
2022/04/29 04:23:59;;;;;;;13.32;8.75;;;;;;;;;;5009532;28;20022;-82
2022/04/29 04:26:25;;;;;;;11.80;9.10;;;;;;;;;;5008771;28;20034;-83
2022/04/29 04:28:51;;;;;;;11.65;9.20;;;;;;;;;;5002224;28;20476;-83
2022/04/29 04:31:17;;;;;;;11.30;8.95;;;;;;;;;;5000094;28;20089;-83
2022/04/29 04:33:43;;;;;;;13.45;10.05;;;;;;;;;;5016710;28;20483;-83
2022/04/29 04:36:09;;;;;;;11.57;9.35;;;;;;;;;;5001903;28;20037;-83
2022/04/29 04:38:37;;;;;;;14.68;9.48;;;;;;;;;;5017121;28;20018;-82
2022/04/29 04:41:03;;;;;;;12.75;9.30;;;;;;;;;;5015633;28;20384;-83
2022/04/29 04:43:29;;;;;;;11.73;8.80;;;;;;;;;;5001711;28;20093;-83
2022/04/29 04:45:56;;;;;;;14.32;9.45;;;;;;;;;;5002705;28;20064;-83
2022/04/29 04:48:22;;;;;;;11.43;8.95;;;;;;;;;;5017511;28;20083;-83
2022/04/29 04:50:48;;;;;;;13.57;9.55;;;;;;;;;;5009627;28;20030;-82
2022/04/29 04:53:14;;;;;;;14.00;9.25;;;;;;;;;;4998292;28;20026;-83
2022/04/29 04:55:40;;;;;;;12.88;9.50;;;;;;;;;;4998736;28;20412;-83
2022/04/29 04:58:08;;;;;;;11.93;9.82;;;;;;;;;;5013165;28;20049;-83
2022/04/29 05:00:35;;;;;;;13.07;9.75;;;;;;;;;;5010454;28;20025;-83
2022/04/29 05:03:01;;;;;;;13.05;9.32;;;;;;;;;;5016461;28;20073;-84
2022/04/29 05:05:28;;;;;;;13.13;9.77;;;;;;;;;;5012113;28;20034;-83
2022/04/29 05:07:53;;;;;;;15.25;8.82;;;;;;;;;;5016085;28;20125;-83
2022/04/29 05:10:20;;;;;;;12.18;8.13;;;;;;;;;;5009229;28;20030;-84
2022/04/29 05:12:47;;;;;;;15.82;9.60;;;;;;;;;;5010958;28;20491;-84
2022/04/29 05:15:14;;;;;;;10.77;8.65;;;;;;;;;;4998845;28;20030;-84
2022/04/29 05:17:40;;;;;;;12.13;9.07;;;;;;;;;;5004808;28;20030;-82
2022/04/29 05:20:07;;;;;;;11.07;8.73;;;;;;;;;;5011863;28;20357;-84
2022/04/29 05:22:33;;;;;;;11.43;7.95;;;;;;;;;;5017405;28;20395;-84
2022/04/29 05:24:59;;;;;;;10.88;8.00;;;;;;;;;;5017956;28;20040;-84
2022/04/29 05:27:25;;;;;;;12.32;9.20;;;;;;;;;;5003458;28;20081;-83
2022/04/29 05:29:51;;;;;;;11.05;8.07;;;;;;;;;;5012188;28;20049;-83
2022/04/29 05:32:18;;;;;;;10.45;8.32;;;;;;;;;;5017735;28;20392;-84
2022/04/29 05:34:45;;;;;;;12.50;8.57;;;;;;;;;;5019318;28;20026;-83
2022/04/29 05:37:11;;;;;;;10.55;8.00;;;;;;;;;;5017327;28;20022;-84
2022/04/29 05:42:23;;;;;;;12.15;8.57;;;;;;;;;;5011849;28;20076;-83
2022/04/29 05:44:49;;;;;;;11.15;8.52;;;;;;;;;;5016455;28;20076;-83
2022/04/29 05:47:15;;;;;;;10.18;8.18;;;;;;;;;;5001869;28;20034;-84
2022/04/29 05:49:42;;;;;;;13.75;8.57;;;;;;;;;;5001357;28;20026;-83
2022/04/29 05:52:09;;;;;;;11.93;8.10;;;;;;;;;;5015231;28;20550;-83
2022/04/29 05:54:35;;;;;;;10.93;8.05;;;;;;;;;;5028523;28;20058;-85
2022/04/29 05:57:02;;;;;;;11.02;8.38;;;;;;;;;;5033221;28;20014;-85
2022/04/29 05:59:28;;;;;;;12.73;8.55;;;;;;;;;;5016111;28;20041;-84
2022/04/29 06:01:54;;;;;;;12.55;8.52;;;;;;;;;;5021581;28;20048;-85
2022/04/29 06:04:20;;;;;;;10.32;8.05;;;;;;;;;;5036096;28;20028;-85
2022/04/29 06:06:46;;;;;;;10.30;8.40;;;;;;;;;;5021158;28;20027;-83
2022/04/29 06:09:12;;;;;;;12.95;8.20;;;;;;;;;;4996267;28;20030;-84
2022/04/29 06:11:38;;;;;;;11.20;8.20;;;;;;;;;;4996361;28;20026;-83
2022/04/29 06:14:04;;;;;;;11.25;8.73;;;;;;;;;;5005992;28;20052;-84
2022/04/29 06:16:30;;;;;;;11.10;8.18;;;;;;;;;;5016540;28;20030;-83
2022/04/29 06:18:56;;;;;;;13.60;8.95;;;;;;;;;;5017341;28;20022;-84
2022/04/29 06:21:24;;;;;;;12.02;8.80;;;;;;;;;;5015357;28;20045;-84
2022/04/29 06:23:49;;;;;;;11.98;8.85;;;;;;;;;;5000052;28;20076;-84
2022/04/29 06:26:16;;;;;;;10.40;8.38;;;;;;;;;;5016883;28;20022;-84
2022/04/29 06:28:42;;;;;;;11.27;9.38;;;;;;;;;;5024100;28;20037;-83
2022/04/29 06:31:08;;;;;;;10.13;8.00;;;;;;;;;;5022037;28;20060;-83
2022/04/29 06:33:35;;;;;;;10.57;8.35;;;;;;;;;;5019158;28;20037;-84
2022/04/29 06:36:01;;;;;;;12.63;9.10;;;;;;;;;;5028084;28;20025;-84
2022/04/29 06:38:28;;;;;;;11.90;9.60;;;;;;;;;;5040278;28;20057;-85
2022/04/29 06:40:55;;;;;;;12.27;9.48;;;;;;;;;;5039944;28;20033;-86
2022/04/29 06:43:21;;;;;;;9.93;8.07;;;;;;;;;;5020835;28;20029;-84
2022/04/29 06:45:47;;;;;;;11.43;9.00;;;;;;;;;;5020483;28;20022;-83
2022/04/29 06:48:13;;;;;;;10.98;8.10;;;;;;;;;;5023336;28;20034;-84
2022/04/29 06:50:40;;;;;;;11.75;7.95;;;;;;;;;;5020211;28;20038;-84
2022/04/29 06:53:06;;;;;;;9.73;7.25;;;;;;;;;;5001428;28;20467;-83
2022/04/29 06:55:32;;;;;;;10.80;8.40;;;;;;;;;;5011528;28;20026;-84
2022/04/29 06:57:58;;;;;;;11.40;7.95;;;;;;;;;;5021622;28;20026;-84
2022/04/29 07:00:24;;;;;;;10.80;8.45;;;;;;;;;;5017993;28;20029;-83
2022/04/29 07:02:51;;;;;;;12.73;8.27;;;;;;;;;;5018776;28;20024;-84
2022/04/29 07:05:17;;;;;;;11.85;9.13;;;;;;;;;;5019946;28;20021;-84
2022/04/29 07:07:43;;;;;;;11.57;7.75;;;;;;;;;;5018528;28;20025;-84
2022/04/29 07:10:09;;;;;;;17.92;9.45;;;;;;;;;;5017675;28;20036;-84
2022/04/29 07:12:42;;;;;;;14.00;9.00;;;;;;;;;;5002970;28;20061;-84
2022/04/29 07:15:08;;;;;;;;;;;;;;;;;;5000454;28;20090;-84
2022/04/29 07:17:34;;;;;;;10.90;7.82;;;;;;;;;;5000422;28;20352;-83
2022/04/29 07:20:00;;;;;;;11.20;7.63;;;;;;;;;;5000390;28;20031;-84
2022/04/29 07:22:26;;;;;;;11.50;8.07;;;;;;;;;;5001269;28;20027;-84
2022/04/29 07:24:52;;;;;;;11.30;7.47;;;;;;;;;;5000507;28;20018;-84
2022/04/29 07:27:18;;;;;;;12.23;7.97;;;;;;;;;;5026826;28;20518;-84
2022/04/29 07:29:44;;;;;;;10.95;7.50;;;;;;;;;;5020460;28;20026;-84
2022/04/29 07:32:10;;;;;;;11.55;7.75;;;;;;;;;;5008254;28;20037;-84
2022/04/29 07:42:50;;;;;;;10.80;8.02;;;;;;;;;;5022315;28;20081;-85
2022/04/29 07:45:17;;;;;;;13.20;9.27;;;;;;;;;;5020125;28;20030;-83
2022/04/29 07:47:43;;;;;;;10.18;8.70;;;;;;;;;;5008759;28;20019;-84
2022/04/29 07:50:11;;;;;;;13.80;9.52;;;;;;;;;;5001121;28;20042;-84
2022/04/29 07:52:37;;;;;;;10.77;8.73;;;;;;;;;;4999403;28;20586;-84
2022/04/29 07:55:04;;;;;;;11.00;9.05;;;;;;;;;;5009165;28;20067;-84
2022/04/29 07:57:30;;;;;;;12.30;8.82;;;;;;;;;;5010628;28;20407;-83
2022/04/29 08:11:40;;;;;;;12.30;9.90;;;;;;;;;;5134576;27;20402;-81
2022/04/29 08:14:06;;;;;;;12.27;9.05;;;;;;;;;;5134178;27;20050;-81
2022/04/29 08:16:33;;;;;;;11.43;8.88;;;;;;;;;;5114435;28;20028;-81
2022/04/29 08:18:59;;;;;;;13.32;9.23;;;;;;;;;;5112605;28;20456;-81
2022/04/29 08:21:25;;;;;;;11.00;8.73;;;;;;;;;;5124959;28;20059;-81
2022/04/29 08:23:51;;;;;;;10.43;8.75;;;;;;;;;;5134134;28;20049;-81
2022/04/29 08:26:17;;;;;;;10.65;8.77;;;;;;;;;;5116703;28;20016;-81
2022/04/29 08:28:43;;;;;;;10.57;9.05;;;;;;;;;;5111948;28;20020;-82
2022/04/29 08:31:09;;;;;;;15.70;9.77;;;;;;;;;;5109623;28;20467;-82
2022/04/29 08:33:35;;;;;;;18.45;10.20;;;;;;;;;;5123314;28;20031;-81
2022/04/29 08:36:01;;;;;;;10.80;9.05;;;;;;;;;;5116905;28;20024;-81
2022/04/29 08:38:27;;;;;;;11.50;10.18;;;;;;;;;;5122995;28;20436;-81
2022/04/29 08:40:59;;;;;;;12.85;9.05;;;;;;;;;;5125643;27;20419;-81
2022/04/29 08:43:27;;;;;;;13.70;9.52;;;;;;;;;;5111193;28;20024;-81
2022/04/29 08:45:53;;;;;;;15.73;9.57;;;;;;;;;;5122942;28;20049;-81
2022/04/29 08:48:19;;;;;;;12.95;9.80;;;;;;;;;;5130149;28;20051;-81
2022/04/29 08:50:45;;;;;;;12.52;10.70;;;;;;;;;;5131137;28;20034;-82
2022/04/29 08:53:11;;;;;;;11.77;9.43;;;;;;;;;;5130457;27;20027;-81
2022/04/29 08:58:38;;;;;;;10.40;8.43;;;;;;;;;;5111721;28;20713;-81
2022/04/29 09:01:05;;;;;;;12.10;8.85;;;;;;;;;;5111586;28;20047;-81
2022/04/29 09:03:32;;;;;;;13.57;8.88;;;;;;;;;;5114688;28;20077;-82
2022/04/29 09:05:58;;;;;;;8.95;6.53;;;;;;;;;;5125963;28;20489;-82
2022/04/29 09:08:24;;;;;;;10.50;6.78;;;;;;;;;;5120165;28;20024;-81
2022/04/29 09:10:57;;;;;;;11.43;7.43;;;;;;;;;;5123145;28;20043;-82
2022/04/29 09:13:24;;;;;;;8.98;6.32;;;;;;;;;;5118917;27;20406;-82
2022/04/29 09:16:01;;;;;;;7.93;5.75;;;;;;;;;;5119233;28;20040;-82
2022/04/29 09:18:28;;;;;;;9.57;6.93;;;;;;;;;;5118043;28;20052;-82
2022/04/29 09:20:54;;;;;;;8.38;6.13;;;;;;;;;;5128207;27;20035;-82
2022/04/29 09:23:28;;;;;;;8.90;5.75;;;;;;;;;;5137857;27;20493;-81
2022/04/29 09:25:56;;;;;;;9.52;6.10;;;;;;;;;;5128113;27;20083;-81
2022/04/29 09:28:22;;;;;;;8.15;5.78;;;;;;;;;;5131533;27;20030;-81
2022/04/29 09:30:48;;;;;;;9.23;5.85;;;;;;;;;;5126106;27;20427;-81
2022/04/29 09:33:19;;;;;;;7.15;5.40;;;;;;;;;;5136850;27;20023;-81
2022/04/29 09:35:51;;;;;;;8.88;6.03;;;;;;;;;;5140029;27;20389;-81
2022/04/29 09:41:02;;;;;;;10.30;6.55;;;;;;;;;;5128654;27;20041;-81
2022/04/29 09:43:32;;;;;;;9.95;5.95;;;;;;;;;;5137841;27;20121;-82
2022/04/29 09:46:18;;;;;;;8.55;5.80;;;;;;;;;;5136950;27;20042;-82
2022/04/29 09:48:54;;;;;;;8.23;6.20;;;;;;;;;;5118649;27;20020;-82
2022/04/29 09:51:39;;;;;;;8.45;6.13;;;;;;;;;;5117639;28;20110;-81
2022/04/29 09:54:09;;;;;;;9.48;6.50;;;;;;;;;;5118587;27;20020;-82
2022/04/29 09:56:35;;;;;;;8.68;6.00;;;;;;;;;;5117117;28;20045;-82
2022/04/29 09:59:01;;;;;;;9.10;6.78;;;;;;;;;;5124475;27;20127;-81
2022/04/29 10:01:28;;;;;;;7.88;6.10;;;;;;;;;;5138060;27;20431;-81
2022/04/29 10:03:54;;;;;;;8.15;5.90;;;;;;;;;;5119864;27;20028;-82
2022/04/29 10:06:21;;;;;;;8.65;5.45;;;;;;;;;;5116297;28;20027;-81
2022/04/29 10:08:49;;;;;;;9.85;6.28;;;;;;;;;;5117255;27;20023;-81
2022/04/29 10:11:15;;;;;;;7.95;6.10;;;;;;;;;;5136951;27;20094;-82
2022/04/29 10:13:41;;;;;;;8.00;5.82;;;;;;;;;;5136127;27;20030;-82
2022/04/29 10:16:11;;;;;;;8.35;6.50;;;;;;;;;;5136938;27;20027;-82
2022/04/29 10:21:24;;;;;;;8.30;6.22;;;;;;;;;;5135660;27;20127;-82
2022/04/29 10:23:50;;;;;;;9.50;5.55;;;;;;;;;;5134985;27;20031;-82
2022/04/29 10:26:19;;;;;;;9.23;6.50;;;;;;;;;;5137076;27;20115;-81
2022/04/29 10:28:45;;;;;;;8.30;6.28;;;;;;;;;;5136957;27;20122;-82
2022/04/29 10:31:19;;;;;;;8.55;6.85;;;;;;;;;;5120742;27;20034;-81
2022/04/29 10:33:46;;;;;;;8.07;6.50;;;;;;;;;;5117188;28;20491;-81
2022/04/29 10:36:16;;;;;;;8.88;6.25;;;;;;;;;;5117385;28;20023;-82
2022/04/29 10:38:48;;;;;;;9.35;6.57;;;;;;;;;;5129715;27;20048;-82
2022/04/29 10:41:15;;;;;;;;;;;;;;;;;;5133691;27;20019;-82
2022/04/29 10:44:03;;;;;;;8.07;6.47;;;;;;;;;;5128322;27;19907;-81
2022/04/29 10:46:41;;;;;;;8.23;6.40;;;;;;;;;;5115357;28;20027;-82
2022/04/29 10:49:25;;;;;;;9.50;6.90;;;;;;;;;;5129495;27;20030;-82
2022/04/29 10:51:52;;;;;;;9.23;6.40;;;;;;;;;;5134708;27;20390;-82
2022/04/29 10:54:34;;;;;;;7.57;6.18;;;;;;;;;;5134018;27;20024;-82
2022/04/29 10:57:02;;;;;;;8.25;6.15;;;;;;;;;;5136406;27;20019;-82
2022/04/29 10:59:28;;;;;;;9.45;6.55;;;;;;;;;;5117686;27;20023;-82
2022/04/29 11:02:08;;;;;;;8.15;6.28;;;;;;;;;;5114583;28;20539;-82
2022/04/29 11:04:37;;;;;;;8.25;6.30;;;;;;;;;;5128532;27;20063;-82
2022/04/29 11:07:03;;;;;;;9.32;6.70;;;;;;;;;;5134983;27;20019;-82
2022/04/29 11:09:35;;;;;;;8.68;6.93;;;;;;;;;;5130498;27;20066;-82
2022/04/29 11:12:01;;;;;;;7.32;5.70;;;;;;;;;;5117809;28;20036;-82
2022/04/29 11:14:27;;;;;;;10.63;6.70;;;;;;;;;;5118229;27;20031;-82
2022/04/29 11:16:56;;;;;;;7.25;6.10;;;;;;;;;;5117627;28;20034;-82
2022/04/29 11:19:28;;;;;;;8.00;5.97;;;;;;;;;;5131740;27;20027;-81
2022/04/29 11:24:50;;;;;;;9.38;6.55;;;;;;;;;;5129108;27;20046;-83
2022/04/29 11:27:29;;;;;;;10.82;6.45;;;;;;;;;;5127931;27;20395;-82
2022/04/29 11:30:01;;;;;;;8.90;6.35;;;;;;;;;;5115617;27;20144;-81
2022/04/29 11:32:28;;;;;;;8.30;6.15;;;;;;;;;;5122748;27;20027;-81
2022/04/29 11:34:57;;;;;;;7.97;5.90;;;;;;;;;;5128142;27;20048;-82
2022/04/29 11:37:23;;;;;;;9.40;6.38;;;;;;;;;;5137277;27;20023;-82
2022/04/29 11:39:50;;;;;;;9.27;7.18;;;;;;;;;;5137070;27;20031;-80
2022/04/29 11:42:19;;;;;;;8.55;6.07;;;;;;;;;;5137725;27;20058;-82
2022/04/29 11:44:45;;;;;;;8.05;6.03;;;;;;;;;;5117138;28;20106;-82
2022/04/29 11:47:16;;;;;;;8.18;6.20;;;;;;;;;;5117635;28;20024;-81
2022/04/29 11:49:42;;;;;;;10.27;6.90;;;;;;;;;;5135761;27;20369;-81
2022/04/29 11:52:17;;;;;;;8.30;6.28;;;;;;;;;;5121050;27;20023;-82
2022/04/29 11:54:50;;;;;;;8.40;6.82;;;;;;;;;;5119503;27;20038;-82
2022/04/29 11:57:17;;;;;;;9.60;6.60;;;;;;;;;;5117821;28;20087;-82
2022/04/29 11:59:43;;;;;;;7.60;5.90;;;;;;;;;;5121321;27;20490;-82
2022/04/29 12:02:10;;;;;;;8.77;7.00;;;;;;;;;;5133245;28;20546;-82
2022/04/29 12:04:36;;;;;;;8.70;5.80;;;;;;;;;;5131894;28;20257;-81
2022/04/29 12:07:05;;;;;;;8.73;7.18;;;;;;;;;;5129053;28;20027;-81
2022/04/29 12:09:34;;;;;;;9.32;6.53;;;;;;;;;;5139349;28;20048;-81
2022/04/29 12:12:00;;;;;;;7.63;6.03;;;;;;;;;;5119559;28;20032;-82
2022/04/29 12:14:26;;;;;;;9.00;6.90;;;;;;;;;;5120874;27;21017;-83
2022/04/29 12:16:52;;;;;;;9.23;6.15;;;;;;;;;;5153380;27;20031;-82
2022/04/29 12:19:21;;;;;;;9.10;6.60;;;;;;;;;;5119223;28;20107;-82
2022/04/29 12:21:57;;;;;;;9.18;6.00;;;;;;;;;;5134886;28;20026;-83
2022/04/29 12:24:26;;;;;;;9.73;6.25;;;;;;;;;;5134467;28;20015;-82
2022/04/29 12:27:05;;;;;;;8.73;5.43;;;;;;;;;;5117947;28;20439;-82
2022/04/29 12:29:32;;;;;;;9.00;5.55;;;;;;;;;;5119710;28;20023;-82
2022/04/29 12:35:10;;;;;;;7.45;5.22;;;;;;;;;;5130276;27;20050;-82
2022/04/29 12:37:36;;;;;;;8.45;4.97;;;;;;;;;;5116825;28;20031;-82
2022/04/29 12:40:08;;;;;;;7.85;5.90;;;;;;;;;;5118990;28;20081;-82
2022/04/29 12:42:35;;;;;;;6.47;5.38;;;;;;;;;;5116786;28;20453;-82
2022/04/29 12:45:09;;;;;;;6.65;4.88;;;;;;;;;;5123820;28;20375;-82
2022/04/29 12:47:38;;;;;;;6.82;4.95;;;;;;;;;;5142021;27;20050;-82
2022/04/29 12:50:23;;;;;;;8.00;5.43;;;;;;;;;;5143284;27;20024;-82
2022/04/29 12:53:00;;;;;;;7.07;5.53;;;;;;;;;;5143328;27;20045;-81
2022/04/29 12:55:26;;;;;;;7.35;5.70;;;;;;;;;;5141932;27;20015;-81
2022/04/29 12:58:01;;;;;;;7.05;5.15;;;;;;;;;;5128509;27;20030;-82
2022/04/29 13:00:27;;;;;;;7.15;5.30;;;;;;;;;;5134340;27;20031;-81
2022/04/29 13:03:00;;;;;;;7.85;4.88;;;;;;;;;;5141125;27;20482;-82
2022/04/29 13:05:26;;;;;;;6.60;4.78;;;;;;;;;;5133631;27;20058;-84
2022/04/29 13:07:52;;;;;;;8.18;4.88;;;;;;;;;;5134088;27;20030;-83
2022/04/29 13:10:18;;;;;;;6.82;4.80;;;;;;;;;;5131727;27;20052;-84
2022/04/29 13:12:45;;;;;;;6.20;4.68;;;;;;;;;;5134643;27;20046;-85
2022/04/29 13:15:14;;;;;;;7.30;5.00;;;;;;;;;;5131313;27;20027;-81
2022/04/29 13:17:40;;;;;;;7.32;5.30;;;;;;;;;;5121532;27;20076;-80
2022/04/29 13:20:08;;;;;;;6.75;4.90;;;;;;;;;;5120343;27;20024;-81
2022/04/29 13:22:34;;;;;;;11.02;4.75;;;;;;;;;;5119082;28;20137;-81
2022/04/29 13:25:00;;;;;;;6.53;4.68;;;;;;;;;;5125709;27;20019;-81
2022/04/29 13:27:28;;;;;;;6.82;4.80;;;;;;;;;;5122470;27;20051;-81
2022/04/29 13:29:55;;;;;;;9.77;5.47;;;;;;;;;;5136758;27;20102;-81
2022/04/29 13:32:21;;;;;;;6.50;5.10;;;;;;;;;;5136625;27;20110;-82
2022/04/29 13:34:50;;;;;;;7.43;5.75;;;;;;;;;;5137196;27;20486;-82
2022/04/29 13:37:17;;;;;;;7.75;5.50;;;;;;;;;;5141400;27;20023;-83
2022/04/29 13:39:43;;;;;;;7.47;5.80;;;;;;;;;;5130104;27;20019;-82
2022/04/29 13:42:10;;;;;;;8.77;5.20;;;;;;;;;;5127252;27;20028;-82
2022/04/29 13:44:37;;;;;;;7.93;5.15;;;;;;;;;;5139072;27;20114;-82
2022/04/29 13:47:03;;;;;;;7.70;5.28;;;;;;;;;;5139843;27;20254;-82
2022/04/29 13:49:29;;;;;;;6.35;4.47;;;;;;;;;;5139712;27;20094;-82
2022/04/29 13:51:55;;;;;;;7.85;4.72;;;;;;;;;;5121723;27;20038;-82
2022/04/29 13:54:21;;;;;;;51.55;17.75;;;;;;;;;;5134171;27;20028;-82
2022/04/29 13:56:47;;;;;;;7.88;5.25;;;;;;;;;;5140025;27;20068;-82
2022/04/29 13:59:14;;;;;;;7.75;5.00;;;;;;;;;;5136041;27;20040;-82
2022/04/29 14:01:40;;;;;;;7.25;4.63;;;;;;;;;;5129711;27;20042;-82
2022/04/29 14:04:07;;;;;;;7.47;5.05;;;;;;;;;;5123298;27;20474;-82
2022/04/29 14:06:33;;;;;;;8.95;5.13;;;;;;;;;;5131964;27;20030;-82
2022/04/29 14:08:58;;;;;;;7.43;4.95;;;;;;;;;;5133093;27;20047;-82
2022/04/29 14:11:24;;;;;;;9.15;4.68;;;;;;;;;;5134232;27;20058;-80
2022/04/29 14:13:51;;;;;;;7.43;4.85;;;;;;;;;;5123502;27;20031;-80
2022/04/29 14:16:17;;;;;;;5.80;4.43;;;;;;;;;;5129277;27;20340;-81
2022/04/29 14:18:43;;;;;;;6.57;4.70;;;;;;;;;;5136718;27;20027;-80
2022/04/29 14:21:09;;;;;;;7.00;5.15;;;;;;;;;;5126766;27;20487;-81
2022/04/29 14:23:35;;;;;;;6.63;4.55;;;;;;;;;;5127344;27;20509;-81
2022/04/29 14:26:01;;;;;;;7.63;4.70;;;;;;;;;;5121453;27;20032;-81
2022/04/29 14:28:27;;;;;;;8.15;5.25;;;;;;;;;;5121044;27;20020;-82
2022/04/29 14:30:53;;;;;;;6.43;4.25;;;;;;;;;;5120131;28;20042;-81
2022/04/29 14:33:19;;;;;;;7.15;5.13;;;;;;;;;;5125091;27;20053;-81
2022/04/29 14:35:45;;;;;;;9.15;4.70;;;;;;;;;;5129364;27;20573;-81
2022/04/29 14:38:12;;;;;;;6.40;4.50;;;;;;;;;;5158980;27;20040;-82
2022/04/29 14:40:38;;;;;;;7.78;4.90;;;;;;;;;;5146707;27;20126;-82
2022/04/29 14:43:03;;;;;;;5.97;4.47;;;;;;;;;;5155689;27;20059;-82
2022/04/29 14:45:30;;;;;;;7.13;4.90;;;;;;;;;;5159774;27;20041;-82
2022/04/29 14:47:57;;;;;;;8.38;5.03;;;;;;;;;;5158897;27;20023;-83
2022/04/29 14:50:23;;;;;;;6.88;4.18;;;;;;;;;;5142980;27;20068;-81
2022/04/29 14:52:49;;;;;;;8.85;4.78;;;;;;;;;;5137715;27;20035;-81
2022/04/29 14:55:15;;;;;;;6.80;4.30;;;;;;;;;;5138309;27;20027;-82
2022/04/29 14:57:41;;;;;;;7.15;5.03;;;;;;;;;;5136779;27;20489;-82
2022/04/29 15:00:08;;;;;;;5.90;4.18;;;;;;;;;;5137583;27;20092;-82
2022/04/29 15:02:34;;;;;;;6.78;4.35;;;;;;;;;;5136142;27;20019;-81
2022/04/29 15:05:01;;;;;;;7.53;5.07;;;;;;;;;;5138156;27;20023;-82
2022/04/29 15:07:27;;;;;;;8.25;5.25;;;;;;;;;;5141731;27;20091;-83
2022/04/29 15:15:35;;;;;;;9.50;5.60;;;;;;;;;;5126447;28;20049;-82
2022/04/29 15:18:02;;;;;;;8.43;5.65;;;;;;;;;;5155183;27;20024;-82
2022/04/29 15:20:28;;;;;;;9.10;4.93;;;;;;;;;;5157947;27;20119;-82
2022/04/29 15:22:54;;;;;;;8.88;5.03;;;;;;;;;;5155498;27;20027;-83
2022/04/29 15:25:20;;;;;;;7.85;4.80;;;;;;;;;;5147280;27;20028;-81